| time (UTC) | temp C | wind direction | speed KPH | gust KPH | rain 1hr cm | rain 24hr cm | rain mn cm | humidity % | barometer mb |
| 20260508045004 | 11 | 313 | 0.0 | 3.2 | 0.00 | 2.87 | 0.00 | 95 | 1014.4 |
| 20260508044504 | 11 | 313 | 0.0 | 1.6 | 0.00 | 2.87 | 0.00 | 95 | 1014.4 |
| 20260508043504 | 11 | 313 | 0.0 | 0.0 | 0.00 | 2.87 | 0.00 | 95 | 1014.1 |
| 20260508043004 | 11 | 313 | 0.0 | 1.6 | 0.00 | 2.87 | 0.00 | 95 | 1014.2 |
| 20260508042504 | 12 | 313 | 1.6 | 1.6 | 0.00 | 2.87 | 0.00 | 95 | 1014.4 |
| 20260508042004 | 12 | 313 | 0.0 | 0.0 | 0.00 | 2.87 | 0.00 | 95 | 1014.4 |
| 20260508041504 | 12 | 313 | 0.0 | 1.6 | 0.00 | 2.87 | 0.00 | 95 | 1014.3 |
| 20260508041004 | 12 | 314 | 1.6 | 3.2 | 0.00 | 2.87 | 0.00 | 95 | 1014.0 |
| 20260508040505 | 12 | 328 | 0.0 | 3.2 | 0.00 | 2.87 | 0.00 | 95 | 1014.0 |
| 20260508040004 | 11 | 333 | 1.6 | 3.2 | 0.00 | 2.87 | 0.00 | 95 | 1014.0 |
| 20260508035004 | 11 | 337 | 1.6 | 4.8 | 0.00 | 2.87 | 2.87 | 95 | 1013.8 |
| 20260508034004 | 11 | 254 | 1.6 | 3.2 | 0.00 | 2.87 | 2.87 | 95 | 1013.4 |
| 20260508033505 | 11 | 255 | 1.6 | 4.8 | 0.00 | 2.87 | 2.87 | 95 | 1013.4 |
| 20260508033004 | 11 | 308 | 3.2 | 8.0 | 0.00 | 2.87 | 2.87 | 95 | 1013.4 |
| 20260508032504 | 11 | 32 | 4.8 | 8.0 | 0.00 | 2.87 | 2.87 | 95 | 1013.6 |
| 20260508032005 | 11 | 355 | 0.0 | 1.6 | 0.00 | 2.87 | 2.87 | 94 | 1013.6 |
| 20260508031504 | 11 | 355 | 1.6 | 3.2 | 0.00 | 2.87 | 2.87 | 95 | 1013.5 |
| 20260508031004 | 11 | 355 | 1.6 | 1.6 | 0.00 | 2.87 | 2.87 | 94 | 1013.2 |
| 20260508030004 | 11 | 355 | 0.0 | 1.6 | 0.00 | 2.87 | 2.87 | 94 | 1013.2 |
| 20260508025506 | 11 | 355 | 0.0 | 1.6 | 0.00 | 2.87 | 2.87 | 94 | 1013.1 |
| 20260508025004 | 11 | 355 | 1.6 | 1.6 | 0.00 | 2.87 | 2.87 | 94 | 1013.1 |
| 20260508024505 | 11 | 355 | 1.6 | 4.8 | 0.00 | 2.87 | 2.87 | 94 | 1013.1 |
| 20260508024005 | 11 | 0 | 3.2 | 4.8 | 0.00 | 2.87 | 2.87 | 94 | 1013.1 |
| 20260508023504 | 11 | 47 | 1.6 | 3.2 | 0.00 | 2.87 | 2.87 | 94 | 1013.1 |
| 20260508023004 | 12 | 73 | 0.0 | 1.6 | 0.00 | 2.87 | 2.87 | 94 | 1013.1 |
| 20260508022504 | 12 | 70 | 1.6 | 3.2 | 0.00 | 2.87 | 2.87 | 94 | 1013.1 |
| 20260508021504 | 12 | 3 | 3.2 | 4.8 | 0.00 | 2.87 | 2.87 | 94 | 1013.1 |
| 20260508021004 | 12 | 3 | 3.2 | 4.8 | 0.00 | 2.87 | 2.87 | 94 | 1012.9 |
| 20260508020004 | 12 | 333 | 1.6 | 3.2 | 0.00 | 2.87 | 2.87 | 94 | 1012.9 |
| 20260508015504 | 12 | 288 | 0.0 | 1.6 | 0.03 | 2.87 | 2.87 | 94 | 1012.5 |
| 20260508015005 | 12 | 288 | 1.6 | 3.2 | 0.13 | 2.87 | 2.87 | 94 | 1012.5 |
| 20260508014504 | 12 | 349 | 0.0 | 3.2 | 0.18 | 2.87 | 2.87 | 94 | 1012.5 |
| 20260508014004 | 12 | 347 | 1.6 | 3.2 | 0.25 | 2.87 | 2.87 | 94 | 1012.4 |
| 20260508013504 | 12 | 322 | 1.6 | 1.6 | 0.28 | 2.87 | 2.87 | 94 | 1012.4 |
| 20260508012504 | 12 | 10 | 0.0 | 4.8 | 0.28 | 2.87 | 2.87 | 93 | 1012.0 |
| 20260508010504 | 12 | 7 | 0.0 | 3.2 | 0.28 | 2.87 | 2.87 | 92 | 1012.2 |
| 20260508010005 | 12 | 354 | 3.2 | 4.8 | 0.28 | 2.87 | 2.87 | 92 | 1012.3 |
| 20260508005504 | 12 | 33 | 3.2 | 4.8 | 0.25 | 2.84 | 2.84 | 92 | 1012.6 |
| 20260508005004 | 12 | 228 | 4.8 | 9.7 | 0.15 | 2.74 | 2.74 | 92 | 1012.6 |
| 20260508004503 | 12 | 335 | 3.2 | 9.7 | 0.10 | 2.69 | 2.69 | 91 | 1012.5 |
| 20260508004005 | 12 | 315 | 4.8 | 8.0 | 0.03 | 2.62 | 2.62 | 91 | 1011.8 |
| 20260508003504 | 12 | 309 | 1.6 | 4.8 | 0.00 | 2.59 | 2.59 | 91 | 1011.8 |
| 20260508003005 | 12 | 323 | 3.2 | 8.0 | 0.00 | 2.59 | 2.59 | 91 | 1011.6 |
| 20260508002504 | 12 | 53 | 1.6 | 3.2 | 0.00 | 2.59 | 2.59 | 91 | 1011.0 |
| 20260508002004 | 12 | 91 | 1.6 | 4.8 | 0.00 | 2.59 | 2.59 | 91 | 1011.0 |
| 20260508001004 | 12 | 99 | 3.2 | 8.0 | 0.00 | 2.59 | 2.59 | 91 | 1011.0 |
| 20260508000505 | 12 | 32 | 4.8 | 12.9 | 0.00 | 2.59 | 2.59 | 91 | 1011.0 |
| 20260508000004 | 12 | 72 | 4.8 | 12.9 | 0.00 | 2.59 | 2.59 | 91 | 1011.0 |
| 20260507235504 | 12 | 64 | 4.8 | 8.0 | 0.00 | 2.59 | 2.59 | 91 | 1011.1 |
| 20260507235004 | 12 | 87 | 4.8 | 11.3 | 0.00 | 2.59 | 2.59 | 91 | 1011.1 |
| 20260507234503 | 12 | 23 | 4.8 | 9.7 | 0.00 | 2.59 | 2.59 | 91 | 1011.1 |
| 20260507234004 | 12 | 28 | 4.8 | 11.3 | 0.00 | 2.59 | 2.59 | 91 | 1011.2 |
| 20260507233504 | 12 | 67 | 8.0 | 19.3 | 0.00 | 2.59 | 2.59 | 91 | 1011.2 |
| 20260507232504 | 12 | 45 | 3.2 | 16.1 | 0.00 | 2.59 | 2.59 | 91 | 1011.0 |
| 20260507232004 | 12 | 30 | 6.4 | 11.3 | 0.00 | 2.59 | 2.59 | 91 | 1011.0 |
| 20260507231505 | 12 | 46 | 6.4 | 11.3 | 0.00 | 2.59 | 2.59 | 91 | 1010.9 |
| 20260507231005 | 12 | 21 | 3.2 | 12.9 | 0.00 | 2.59 | 2.59 | 91 | 1010.7 |
| 20260507230504 | 12 | 343 | 4.8 | 16.1 | 0.00 | 2.59 | 2.59 | 91 | 1010.7 |
| 20260507230005 | 12 | 27 | 8.0 | 12.9 | 0.00 | 2.59 | 2.59 | 92 | 1010.7 |
| 20260507225004 | 12 | 13 | 11.3 | 24.1 | 0.00 | 2.59 | 2.59 | 92 | 1010.6 |
| 20260507224505 | 12 | 9 | 8.0 | 20.9 | 0.00 | 2.59 | 2.59 | 92 | 1010.6 |
| 20260507224004 | 12 | 26 | 8.0 | 19.3 | 0.00 | 2.59 | 2.59 | 93 | 1010.5 |
| 20260507223504 | 12 | 0 | 4.8 | 9.7 | 0.00 | 2.59 | 2.59 | 93 | 1010.5 |
| 20260507223004 | 12 | 32 | 8.0 | 19.3 | 0.00 | 2.59 | 2.59 | 93 | 1010.5 |
| 20260507222504 | 12 | 33 | 8.0 | 14.5 | 0.00 | 2.59 | 2.59 | 93 | 1010.8 |
| 20260507222004 | 12 | 43 | 9.7 | 20.9 | 0.00 | 2.59 | 2.59 | 93 | 1010.8 |
| 20260507221504 | 12 | 35 | 8.0 | 19.3 | 0.00 | 2.59 | 2.59 | 93 | 1010.7 |
| 20260507221005 | 12 | 6 | 9.7 | 20.9 | 0.00 | 2.59 | 2.59 | 93 | 1010.5 |
| 20260507220504 | 12 | 358 | 9.7 | 19.3 | 0.00 | 2.59 | 2.59 | 93 | 1010.5 |
| 20260507220004 | 12 | 12 | 14.5 | 25.7 | 0.00 | 2.59 | 2.59 | 93 | 1010.5 |
| 20260507215504 | 12 | 11 | 12.9 | 20.9 | 0.00 | 2.59 | 2.59 | 93 | 1010.4 |
| 20260507215004 | 12 | 46 | 14.5 | 29.0 | 0.03 | 2.59 | 2.59 | 93 | 1010.4 |
| 20260507214504 | 12 | 25 | 11.3 | 25.7 | 0.05 | 2.59 | 2.59 | 93 | 1010.4 |
| 20260507214004 | 12 | 23 | 9.7 | 19.3 | 0.08 | 2.59 | 2.59 | 93 | 1010.4 |
| 20260507213504 | 12 | 10 | 17.7 | 37.0 | 0.13 | 2.59 | 2.59 | 93 | 1010.4 |
| 20260507213004 | 12 | 2 | 12.9 | 37.0 | 0.15 | 2.59 | 2.59 | 94 | 1010.3 |
| 20260507212004 | 12 | 10 | 16.1 | 32.2 | 0.33 | 2.59 | 2.59 | 94 | 1010.0 |
| 20260507211503 | 13 | 349 | 11.3 | 25.7 | 0.36 | 2.59 | 2.59 | 94 | 1009.9 |
| 20260507211004 | 13 | 348 | 16.1 | 29.0 | 0.41 | 2.59 | 2.59 | 94 | 1009.6 |
| 20260507210503 | 13 | 2 | 11.3 | 29.0 | 0.48 | 2.59 | 2.59 | 94 | 1009.6 |
| 20260507210005 | 13 | 20 | 19.3 | 29.0 | 0.51 | 2.59 | 2.59 | 94 | 1009.6 |
| 20260507205504 | 13 | 25 | 14.5 | 25.7 | 0.51 | 2.59 | 2.59 | 94 | 1009.9 |
| 20260507204505 | 13 | 353 | 14.5 | 25.7 | 0.46 | 2.54 | 2.54 | 94 | 1009.8 |
| 20260507204004 | 13 | 9 | 14.5 | 25.7 | 0.43 | 2.51 | 2.51 | 94 | 1009.4 |
| 20260507202504 | 14 | 350 | 8.0 | 19.3 | 0.28 | 2.36 | 2.36 | 93 | 1009.2 |
| 20260507202005 | 15 | 22 | 8.0 | 12.9 | 0.18 | 2.26 | 2.26 | 93 | 1009.2 |
| 20260507201504 | 15 | 29 | 9.7 | 20.9 | 0.15 | 2.24 | 2.24 | 93 | 1009.2 |
| 20260507201004 | 15 | 23 | 11.3 | 20.9 | 0.10 | 2.18 | 2.18 | 93 | 1009.3 |
| 20260507200505 | 15 | 342 | 8.0 | 16.1 | 0.03 | 2.11 | 2.11 | 93 | 1009.3 |
| 20260507200004 | 15 | 21 | 6.4 | 24.1 | 0.00 | 2.08 | 2.08 | 92 | 1009.2 |
| 20260507195504 | 15 | 19 | 9.7 | 19.3 | 0.00 | 2.08 | 2.08 | 92 | 1009.1 |
| 20260507195004 | 15 | 6 | 6.4 | 19.3 | 0.00 | 2.08 | 2.08 | 92 | 1009.1 |
| 20260507194504 | 15 | 30 | 12.9 | 19.3 | 0.00 | 2.08 | 2.08 | 92 | 1009.1 |
| 20260507194004 | 16 | 22 | 8.0 | 27.4 | 0.00 | 2.08 | 2.08 | 92 | 1009.3 |
| 20260507193505 | 16 | 358 | 9.7 | 29.0 | 0.00 | 2.08 | 2.08 | 92 | 1009.3 |
| 20260507193004 | 16 | 350 | 9.7 | 24.1 | 0.00 | 2.08 | 2.08 | 92 | 1009.2 |
| 20260507192504 | 16 | 22 | 14.5 | 25.7 | 0.00 | 2.08 | 2.08 | 92 | 1008.7 |
| 20260507191504 | 16 | 18 | 14.5 | 29.0 | 0.00 | 2.08 | 2.08 | 92 | 1008.7 |
| 20260507191004 | 16 | 22 | 9.7 | 20.9 | 0.00 | 2.08 | 2.08 | 92 | 1008.4 |
| 20260507190505 | 16 | 10 | 4.8 | 14.5 | 0.00 | 2.08 | 2.08 | 92 | 1008.4 |
| 20260507190005 | 16 | 16 | 9.7 | 20.9 | 0.00 | 2.08 | 2.08 | 92 | 1008.5 |
| 20260507185504 | 16 | 30 | 9.7 | 14.5 | 0.03 | 2.08 | 2.08 | 92 | 1009.1 |
| 20260507185004 | 17 | 2 | 11.3 | 25.7 | 0.03 | 2.08 | 2.08 | 91 | 1009.1 |
| 20260507184005 | 17 | 331 | 6.4 | 24.1 | 0.03 | 2.08 | 2.08 | 89 | 1008.3 |
| 20260507183505 | 17 | 45 | 11.3 | 24.1 | 0.03 | 2.08 | 2.08 | 88 | 1008.3 |
| 20260507183004 | 18 | 47 | 19.3 | 32.2 | 0.03 | 2.08 | 2.08 | 85 | 1008.3 |
| 20260507182504 | 21 | 354 | 22.5 | 33.8 | 0.03 | 2.08 | 2.08 | 81 | 1008.2 |
| 20260507182005 | 22 | 353 | 4.8 | 9.7 | 0.03 | 2.08 | 2.08 | 90 | 1008.2 |
| 20260507181504 | 22 | 325 | 4.8 | 8.0 | 0.03 | 2.08 | 2.08 | 91 | 1008.2 |
| 20260507181004 | 21 | 240 | 3.2 | 11.3 | 0.03 | 2.08 | 2.08 | 91 | 1008.3 |
| 20260507180504 | 21 | 259 | 3.2 | 11.3 | 0.03 | 2.08 | 2.08 | 91 | 1008.3 |
| 20260507180004 | 21 | 278 | 1.6 | 9.7 | 0.03 | 2.08 | 2.08 | 91 | 1008.2 |
| 20260507175004 | 21 | 265 | 4.8 | 14.5 | 0.00 | 2.06 | 2.06 | 92 | 1008.1 |
| 20260507174005 | 21 | 274 | 4.8 | 11.3 | 0.00 | 2.06 | 2.06 | 93 | 1008.0 |
| 20260507173504 | 21 | 194 | 8.0 | 16.1 | 0.00 | 2.06 | 2.06 | 93 | 1008.0 |
| 20260507173004 | 21 | 201 | 8.0 | 12.9 | 0.00 | 2.06 | 2.06 | 94 | 1008.0 |
| 20260507172505 | 21 | 188 | 4.8 | 8.0 | 0.00 | 2.06 | 2.06 | 93 | 1008.3 |
| 20260507172004 | 21 | 198 | 6.4 | 9.7 | 0.00 | 2.06 | 2.06 | 93 | 1008.3 |
| 20260507171504 | 20 | 214 | 4.8 | 9.7 | 0.00 | 2.06 | 2.06 | 93 | 1008.4 |
| 20260507171004 | 20 | 147 | 3.2 | 8.0 | 0.00 | 2.06 | 2.06 | 93 | 1008.8 |
| 20260507170503 | 20 | 284 | 3.2 | 4.8 | 0.00 | 2.06 | 2.06 | 93 | 1008.8 |
| 20260507170005 | 20 | 181 | 3.2 | 9.7 | 0.00 | 2.06 | 2.06 | 94 | 1008.9 |
| 20260507165505 | 20 | 205 | 3.2 | 8.0 | 0.00 | 2.06 | 2.06 | 93 | 1009.3 |
| 20260507165004 | 20 | 216 | 4.8 | 9.7 | 0.00 | 2.06 | 2.06 | 93 | 1009.3 |
| 20260507164504 | 20 | 208 | 6.4 | 9.7 | 0.03 | 2.06 | 2.06 | 94 | 1009.3 |
| 20260507164004 | 20 | 184 | 1.6 | 3.2 | 0.03 | 2.06 | 2.06 | 94 | 1009.5 |
| 20260507163504 | 20 | 237 | 4.8 | 8.0 | 0.05 | 2.06 | 2.06 | 93 | 1009.5 |
| 20260507163004 | 20 | 221 | 3.2 | 8.0 | 0.05 | 2.06 | 2.06 | 93 | 1009.6 |
| 20260507162504 | 20 | 283 | 4.8 | 8.0 | 0.08 | 2.06 | 2.06 | 94 | 1009.7 |
| 20260507162004 | 20 | 235 | 4.8 | 12.9 | 0.08 | 2.06 | 2.06 | 94 | 1009.7 |
| 20260507161504 | 20 | 231 | 6.4 | 11.3 | 0.10 | 2.06 | 2.06 | 93 | 1009.7 |
| 20260507161005 | 20 | 211 | 3.2 | 11.3 | 0.10 | 2.06 | 2.06 | 94 | 1009.5 |
| 20260507160504 | 20 | 270 | 4.8 | 11.3 | 0.15 | 2.06 | 2.06 | 94 | 1009.5 |
| 20260507160004 | 20 | 214 | 4.8 | 11.3 | 0.20 | 2.06 | 2.06 | 94 | 1009.4 |
| 20260507155504 | 20 | 214 | 6.4 | 11.3 | 0.25 | 2.06 | 2.06 | 94 | 1009.4 |
| 20260507155004 | 20 | 265 | 3.2 | 8.0 | 0.30 | 2.06 | 2.06 | 94 | 1009.4 |
| 20260507154504 | 20 | 221 | 4.8 | 9.7 | 0.30 | 2.03 | 2.03 | 94 | 1009.4 |
| 20260507154005 | 20 | 221 | 3.2 | 4.8 | 0.36 | 2.03 | 2.03 | 94 | 1009.8 |
| 20260507153506 | 20 | 276 | 3.2 | 8.0 | 0.36 | 2.01 | 2.01 | 94 | 1009.8 |
| 20260507153004 | 20 | 253 | 8.0 | 19.3 | 0.38 | 2.01 | 2.01 | 94 | 1009.8 |
| 20260507152504 | 19 | 252 | 11.3 | 24.1 | 0.41 | 1.98 | 1.98 | 94 | 1009.8 |
| 20260507151504 | 20 | 229 | 11.3 | 16.1 | 0.43 | 1.96 | 1.96 | 94 | 1009.9 |
| 20260507151004 | 20 | 225 | 4.8 | 12.9 | 0.46 | 1.96 | 1.96 | 94 | 1010.3 |
| 20260507150504 | 20 | 211 | 9.7 | 12.9 | 0.41 | 1.91 | 1.91 | 94 | 1010.3 |
| 20260507150005 | 20 | 225 | 9.7 | 12.9 | 0.41 | 1.85 | 1.85 | 94 | 1010.3 |
| 20260507145004 | 20 | 223 | 4.8 | 11.3 | 0.30 | 1.75 | 1.75 | 94 | 1010.2 |
| 20260507144504 | 20 | 212 | 4.8 | 9.7 | 0.28 | 1.73 | 1.73 | 94 | 1010.2 |
| 20260507144005 | 20 | 262 | 9.7 | 20.9 | 0.23 | 1.68 | 1.68 | 94 | 1010.1 |
| 20260507142504 | 20 | 308 | 4.8 | 9.7 | 0.13 | 1.57 | 1.57 | 94 | 1010.1 |
| 20260507141504 | 20 | 258 | 3.2 | 8.0 | 0.08 | 1.52 | 1.52 | 94 | 1010.2 |
| 20260507141004 | 20 | 310 | 4.8 | 12.9 | 0.05 | 1.50 | 1.50 | 94 | 1010.4 |
| 20260507140504 | 20 | 273 | 3.2 | 12.9 | 0.05 | 1.50 | 1.50 | 94 | 1010.4 |
| 20260507140005 | 20 | 220 | 4.8 | 12.9 | 0.00 | 1.45 | 1.45 | 94 | 1010.4 |
| 20260507135504 | 20 | 213 | 4.8 | 9.7 | 0.00 | 1.45 | 1.45 | 94 | 1010.3 |
| 20260507135004 | 20 | 215 | 3.2 | 12.9 | 0.00 | 1.45 | 1.45 | 94 | 1010.3 |
| 20260507134504 | 20 | 294 | 3.2 | 4.8 | 0.00 | 1.45 | 1.45 | 94 | 1010.3 |
| 20260507134004 | 20 | 251 | 1.6 | 4.8 | 0.00 | 1.45 | 1.45 | 95 | 1010.2 |
| 20260507133504 | 20 | 316 | 1.6 | 8.0 | 0.00 | 1.45 | 1.45 | 95 | 1010.2 |
| 20260507133005 | 20 | 256 | 3.2 | 9.7 | 0.00 | 1.45 | 1.45 | 95 | 1010.2 |
| 20260507132004 | 20 | 288 | 1.6 | 4.8 | 0.00 | 1.45 | 1.45 | 95 | 1010.2 |
| 20260507131504 | 20 | 272 | 4.8 | 9.7 | 0.00 | 1.45 | 1.45 | 95 | 1010.2 |
| 20260507131004 | 20 | 230 | 4.8 | 9.7 | 0.00 | 1.45 | 1.45 | 95 | 1010.1 |
| 20260507130504 | 20 | 218 | 6.4 | 11.3 | 0.00 | 1.45 | 1.45 | 95 | 1010.1 |
| 20260507130005 | 20 | 223 | 8.0 | 16.1 | 0.00 | 1.45 | 1.45 | 95 | 1010.1 |
| 20260507125504 | 20 | 231 | 8.0 | 19.3 | 0.00 | 1.45 | 1.45 | 95 | 1010.3 |
| 20260507124504 | 20 | 228 | 8.0 | 20.9 | 0.00 | 1.45 | 1.45 | 96 | 1010.3 |
| 20260507124004 | 20 | 229 | 8.0 | 20.9 | 0.00 | 1.45 | 1.45 | 96 | 1010.5 |
| 20260507123504 | 19 | 205 | 9.7 | 16.1 | 0.00 | 1.45 | 1.45 | 95 | 1010.5 |
| 20260507123003 | 19 | 219 | 6.4 | 12.9 | 0.00 | 1.45 | 1.45 | 95 | 1010.5 |
| 20260507122504 | 19 | 212 | 8.0 | 12.9 | 0.00 | 1.45 | 1.45 | 96 | 1010.7 |
| 20260507122004 | 19 | 242 | 4.8 | 9.7 | 0.00 | 1.45 | 1.45 | 96 | 1010.7 |
| 20260507121004 | 19 | 209 | 6.4 | 12.9 | 0.00 | 1.45 | 1.45 | 96 | 1010.9 |
| 20260507120504 | 19 | 203 | 4.8 | 9.7 | 0.00 | 1.45 | 1.45 | 96 | 1010.9 |
| 20260507115505 | 19 | 205 | 4.8 | 9.7 | 0.00 | 1.45 | 1.45 | 96 | 1010.9 |
| 20260507115004 | 19 | 223 | 4.8 | 9.7 | 0.03 | 1.45 | 1.45 | 95 | 1010.9 |
| 20260507114504 | 19 | 240 | 4.8 | 9.7 | 0.03 | 1.45 | 1.45 | 95 | 1010.9 |
| 20260507114005 | 19 | 232 | 4.8 | 9.7 | 0.05 | 1.45 | 1.45 | 95 | 1011.1 |
| 20260507113504 | 19 | 201 | 3.2 | 8.0 | 0.05 | 1.45 | 1.45 | 95 | 1011.1 |
| 20260507113004 | 19 | 203 | 4.8 | 8.0 | 0.05 | 1.45 | 1.45 | 95 | 1011.1 |
| 20260507112504 | 19 | 210 | 3.2 | 9.7 | 0.05 | 1.45 | 1.45 | 95 | 1011.1 |
| 20260507112004 | 19 | 209 | 4.8 | 9.7 | 0.05 | 1.45 | 1.45 | 95 | 1011.1 |
| 20260507111504 | 19 | 226 | 3.2 | 8.0 | 0.08 | 1.45 | 1.45 | 95 | 1011.1 |
| 20260507111004 | 19 | 214 | 6.4 | 12.9 | 0.08 | 1.45 | 1.45 | 95 | 1010.9 |
| 20260507110504 | 19 | 239 | 6.4 | 11.3 | 0.08 | 1.45 | 1.45 | 95 | 1010.9 |
| 20260507110004 | 18 | 210 | 4.8 | 12.9 | 0.08 | 1.45 | 1.45 | 95 | 1010.9 |
| 20260507105504 | 18 | 225 | 4.8 | 16.1 | 0.08 | 1.45 | 1.45 | 95 | 1010.8 |
| 20260507105004 | 19 | 198 | 8.0 | 11.3 | 0.05 | 1.42 | 1.42 | 95 | 1010.8 |
| 20260507104504 | 18 | 216 | 4.8 | 11.3 | 0.08 | 1.42 | 1.42 | 95 | 1010.8 |
| 20260507104004 | 18 | 191 | 8.0 | 16.1 | 0.05 | 1.40 | 1.40 | 95 | 1010.8 |
| 20260507103505 | 18 | 194 | 4.8 | 11.3 | 0.05 | 1.40 | 1.40 | 95 | 1010.8 |
| 20260507103004 | 18 | 225 | 3.2 | 9.7 | 0.05 | 1.40 | 1.40 | 95 | 1010.8 |
| 20260507102504 | 18 | 258 | 4.8 | 9.7 | 0.05 | 1.40 | 1.40 | 95 | 1010.7 |
| 20260507102006 | 18 | 239 | 4.8 | 9.7 | 0.05 | 1.40 | 1.40 | 95 | 1010.7 |
| 20260507101504 | 18 | 236 | 1.6 | 3.2 | 0.03 | 1.37 | 1.37 | 95 | 1010.7 |
| 20260507101004 | 18 | 209 | 4.8 | 9.7 | 0.03 | 1.37 | 1.37 | 95 | 1010.5 |
| 20260507100505 | 18 | 209 | 6.4 | 9.7 | 0.05 | 1.37 | 1.37 | 95 | 1010.5 |
| 20260507100004 | 19 | 213 | 3.2 | 9.7 | 0.08 | 1.37 | 1.37 | 95 | 1010.5 |
| 20260507095504 | 19 | 225 | 6.4 | 12.9 | 0.13 | 1.37 | 1.37 | 95 | 1010.3 |
| 20260507095004 | 19 | 216 | 4.8 | 16.1 | 0.20 | 1.37 | 1.37 | 95 | 1010.3 |
| 20260507094504 | 19 | 216 | 8.0 | 14.5 | 0.20 | 1.35 | 1.35 | 95 | 1010.4 |
| 20260507094005 | 19 | 208 | 8.0 | 11.3 | 0.28 | 1.35 | 1.35 | 95 | 1010.5 |
| 20260507093004 | 18 | 208 | 4.8 | 9.7 | 0.33 | 1.35 | 1.35 | 95 | 1010.5 |
| 20260507092004 | 18 | 220 | 4.8 | 11.3 | 0.36 | 1.35 | 1.35 | 95 | 1010.6 |
| 20260507091503 | 18 | 195 | 11.3 | 20.9 | 0.38 | 1.35 | 1.35 | 95 | 1010.6 |
| 20260507091004 | 18 | 239 | 8.0 | 20.9 | 0.38 | 1.35 | 1.35 | 95 | 1010.7 |
| 20260507090504 | 18 | 198 | 11.3 | 24.1 | 0.38 | 1.32 | 1.32 | 95 | 1010.7 |
| 20260507085004 | 18 | 196 | 8.0 | 14.5 | 0.28 | 1.17 | 1.17 | 95 | 1011.2 |
| 20260507084004 | 18 | 223 | 8.0 | 12.9 | 0.20 | 1.07 | 1.07 | 95 | 1011.3 |
| 20260507083504 | 18 | 216 | 4.8 | 9.7 | 0.18 | 1.04 | 1.04 | 95 | 1011.3 |
| 20260507082504 | 18 | 200 | 4.8 | 8.0 | 0.15 | 1.02 | 1.02 | 95 | 1010.4 |
| 20260507081504 | 18 | 178 | 8.0 | 12.9 | 0.10 | 0.97 | 0.97 | 95 | 1010.6 |
| 20260507081004 | 18 | 153 | 6.4 | 9.7 | 0.10 | 0.97 | 0.97 | 95 | 1011.4 |
| 20260507080504 | 18 | 180 | 3.2 | 3.2 | 0.08 | 0.94 | 0.94 | 94 | 1011.4 |
| 20260507080005 | 18 | 198 | 1.6 | 3.2 | 0.05 | 0.91 | 0.91 | 95 | 1011.4 |
| 20260507075504 | 18 | 198 | 0.0 | 3.2 | 0.05 | 0.91 | 0.91 | 95 | 1011.6 |
| 20260507075004 | 18 | 218 | 1.6 | 4.8 | 0.03 | 0.89 | 0.89 | 95 | 1011.6 |
| 20260507074504 | 18 | 216 | 3.2 | 4.8 | 0.03 | 0.89 | 0.89 | 95 | 1011.6 |
| 20260507074004 | 18 | 212 | 1.6 | 4.8 | 0.00 | 0.86 | 0.86 | 94 | 1011.8 |
| 20260507073504 | 18 | 129 | 3.2 | 8.0 | 0.00 | 0.86 | 0.86 | 94 | 1011.8 |
| 20260507072504 | 18 | 193 | 4.8 | 9.7 | 0.00 | 0.86 | 0.86 | 94 | 1011.7 |
| 20260507072004 | 18 | 184 | 3.2 | 8.0 | 0.00 | 0.86 | 0.86 | 94 | 1011.7 |
| 20260507071504 | 18 | 190 | 3.2 | 4.8 | 0.00 | 0.86 | 0.86 | 94 | 1011.6 |
| 20260507071004 | 18 | 201 | 3.2 | 4.8 | 0.00 | 0.86 | 0.86 | 94 | 1011.6 |
| 20260507070504 | 18 | 157 | 1.6 | 3.2 | 0.00 | 0.86 | 0.86 | 94 | 1011.6 |
| 20260507070009 | 18 | 167 | 1.6 | 3.2 | 0.00 | 0.86 | 0.86 | 94 | 1011.7 |
| 20260507065004 | 18 | 169 | 1.6 | 3.2 | 0.00 | 0.86 | 0.86 | 94 | 1011.9 |
| 20260507064504 | 19 | 151 | 3.2 | 3.2 | 0.00 | 0.86 | 0.86 | 94 | 1011.9 |
| 20260507063504 | 19 | 221 | 0.0 | 1.6 | 0.03 | 0.86 | 0.86 | 94 | 1012.3 |
| 20260507063004 | 19 | 221 | 0.0 | 1.6 | 0.10 | 0.86 | 0.86 | 94 | 1012.3 |
| 20260507062504 | 19 | 221 | 0.0 | 3.2 | 0.15 | 0.86 | 0.86 | 93 | 1012.4 |
| 20260507062006 | 19 | 232 | 1.6 | 3.2 | 0.23 | 0.86 | 0.86 | 93 | 1012.4 |
| 20260507061505 | 19 | 158 | 3.2 | 8.0 | 0.38 | 0.86 | 0.86 | 93 | 1012.3 |
| 20260507061004 | 19 | 179 | 3.2 | 4.8 | 0.43 | 0.86 | 0.86 | 93 | 1012.0 |
| 20260507060504 | 19 | 172 | 3.2 | 4.8 | 0.58 | 0.86 | 0.86 | 93 | 1012.0 |
| 20260507060004 | 19 | 166 | 1.6 | 3.2 | 0.74 | 0.86 | 0.86 | 93 | 1012.0 |
| 20260507055504 | 19 | 175 | 3.2 | 4.8 | 0.81 | 0.86 | 0.86 | 93 | 1012.1 |
| 20260507055004 | 19 | 173 | 4.8 | 9.7 | 0.86 | 0.86 | 0.86 | 92 | 1012.1 |
| 20260507054504 | 19 | 211 | 4.8 | 8.0 | 0.86 | 0.86 | 0.86 | 92 | 1012.0 |
| 20260507054005 | 19 | 189 | 3.2 | 4.8 | 0.86 | 0.86 | 0.86 | 92 | 1011.8 |
| 20260507053504 | 19 | 159 | 4.8 | 11.3 | 0.84 | 0.84 | 0.84 | 91 | 1011.8 |
| 20260507053005 | 20 | 116 | 9.7 | 16.1 | 0.76 | 0.76 | 0.76 | 91 | 1012.1 |
| 20260507052004 | 20 | 281 | 1.6 | 8.0 | 0.64 | 0.64 | 0.64 | 89 | 1013.9 |
| 20260507051005 | 20 | 178 | 3.2 | 4.8 | 0.43 | 0.43 | 0.43 | 87 | 1013.9 |
| 20260507050504 | 20 | 308 | 3.2 | 12.9 | 0.28 | 0.28 | 0.28 | 86 | 1013.9 |
| 20260507050005 | 21 | 297 | 6.4 | 11.3 | 0.13 | 0.13 | 0.13 | 84 | 1013.8 |
| 20260507045504 | 21 | 321 | 3.2 | 12.9 | 0.05 | 0.05 | 0.05 | 82 | 1013.4 |